sensor_id;sensor_type;location;lat;lon;timestamp;temperature;humidity
364;DHT22;173;48.718;9.274;2022-08-01T00:00:22;23.00;62.90
364;DHT22;173;48.718;9.274;2022-08-01T00:02:54;22.90;62.80
364;DHT22;173;48.718;9.274;2022-08-01T00:05:26;23.00;62.60
364;DHT22;173;48.718;9.274;2022-08-01T00:07:58;23.00;63.50
364;DHT22;173;48.718;9.274;2022-08-01T00:10:31;23.00;63.40
364;DHT22;173;48.718;9.274;2022-08-01T00:13:03;22.90;64.10
364;DHT22;173;48.718;9.274;2022-08-01T00:15:35;22.90;64.90
364;DHT22;173;48.718;9.274;2022-08-01T00:18:07;22.80;65.40
364;DHT22;173;48.718;9.274;2022-08-01T00:20:39;22.70;65.20
364;DHT22;173;48.718;9.274;2022-08-01T00:23:11;22.60;65.20
364;DHT22;173;48.718;9.274;2022-08-01T00:25:43;22.60;65.90
364;DHT22;173;48.718;9.274;2022-08-01T00:28:15;22.50;65.90
364;DHT22;173;48.718;9.274;2022-08-01T00:30:47;22.50;65.90
364;DHT22;173;48.718;9.274;2022-08-01T00:33:19;22.50;65.80
364;DHT22;173;48.718;9.274;2022-08-01T00:35:51;22.50;65.90
364;DHT22;173;48.718;9.274;2022-08-01T00:38:24;22.40;66.80
364;DHT22;173;48.718;9.274;2022-08-01T00:40:56;22.30;66.80
364;DHT22;173;48.718;9.274;2022-08-01T00:43:28;22.30;67.10
364;DHT22;173;48.718;9.274;2022-08-01T00:46:00;22.20;67.10
364;DHT22;173;48.718;9.274;2022-08-01T00:48:32;22.10;67.40
364;DHT22;173;48.718;9.274;2022-08-01T00:51:05;22.10;67.30
364;DHT22;173;48.718;9.274;2022-08-01T00:53:38;22.10;67.80
364;DHT22;173;48.718;9.274;2022-08-01T00:56:11;22.00;67.90
364;DHT22;173;48.718;9.274;2022-08-01T00:58:43;22.10;67.60
364;DHT22;173;48.718;9.274;2022-08-01T01:01:16;22.00;67.60
364;DHT22;173;48.718;9.274;2022-08-01T01:03:51;22.10;67.60
364;DHT22;173;48.718;9.274;2022-08-01T01:09:39;22.10;67.90
364;DHT22;173;48.718;9.274;2022-08-01T01:17:45;21.90;68.30
364;DHT22;173;48.718;9.274;2022-08-01T01:20:18;21.70;69.20
364;DHT22;173;48.718;9.274;2022-08-01T01:26:01;21.60;70.60
364;DHT22;173;48.718;9.274;2022-08-01T01:31:25;21.50;71.60
364;DHT22;173;48.718;9.274;2022-08-01T01:34:00;21.40;71.90
364;DHT22;173;48.718;9.274;2022-08-01T01:36:33;21.30;72.90
364;DHT22;173;48.718;9.274;2022-08-01T01:39:07;21.20;72.40
364;DHT22;173;48.718;9.274;2022-08-01T01:41:43;21.30;72.20
364;DHT22;173;48.718;9.274;2022-08-01T01:44:17;21.20;72.90
364;DHT22;173;48.718;9.274;2022-08-01T01:46:51;21.30;72.50
364;DHT22;173;48.718;9.274;2022-08-01T01:49:25;21.20;72.70
364;DHT22;173;48.718;9.274;2022-08-01T01:52:00;21.20;72.60
364;DHT22;173;48.718;9.274;2022-08-01T01:54:35;21.10;72.60
364;DHT22;173;48.718;9.274;2022-08-01T01:57:10;21.00;73.10
364;DHT22;173;48.718;9.274;2022-08-01T01:59:46;21.00;73.60
364;DHT22;173;48.718;9.274;2022-08-01T02:02:19;20.90;73.20
364;DHT22;173;48.718;9.274;2022-08-01T02:04:50;20.90;73.60
364;DHT22;173;48.718;9.274;2022-08-01T02:07:24;21.00;73.90
364;DHT22;173;48.718;9.274;2022-08-01T02:09:58;20.90;74.00
364;DHT22;173;48.718;9.274;2022-08-01T02:12:34;20.90;73.90
364;DHT22;173;48.718;9.274;2022-08-01T02:15:08;20.90;74.60
364;DHT22;173;48.718;9.274;2022-08-01T02:17:44;20.90;75.10
364;DHT22;173;48.718;9.274;2022-08-01T02:20:18;20.90;74.90
364;DHT22;173;48.718;9.274;2022-08-01T02:23:08;20.80;75.10
364;DHT22;173;48.718;9.274;2022-08-01T02:25:49;20.70;75.50
364;DHT22;173;48.718;9.274;2022-08-01T02:28:35;20.70;75.50
364;DHT22;173;48.718;9.274;2022-08-01T02:31:11;20.80;75.40
364;DHT22;173;48.718;9.274;2022-08-01T02:33:48;20.80;75.40
364;DHT22;173;48.718;9.274;2022-08-01T02:36:22;20.80;75.30
364;DHT22;173;48.718;9.274;2022-08-01T02:39:50;20.70;75.50
364;DHT22;173;48.718;9.274;2022-08-01T02:42:26;20.70;75.60
364;DHT22;173;48.718;9.274;2022-08-01T02:44:59;20.70;75.80
364;DHT22;173;48.718;9.274;2022-08-01T02:47:33;20.70;75.90
364;DHT22;173;48.718;9.274;2022-08-01T02:50:08;20.80;75.90
364;DHT22;173;48.718;9.274;2022-08-01T02:52:43;20.80;75.90
364;DHT22;173;48.718;9.274;2022-08-01T02:55:19;20.70;76.30
364;DHT22;173;48.718;9.274;2022-08-01T03:00:25;20.60;76.90
364;DHT22;173;48.718;9.274;2022-08-01T03:02:58;20.60;76.90
364;DHT22;173;48.718;9.274;2022-08-01T03:05:33;20.70;76.70
364;DHT22;173;48.718;9.274;2022-08-01T03:08:09;20.70;76.80
364;DHT22;173;48.718;9.274;2022-08-01T03:10:44;20.70;77.30
364;DHT22;173;48.718;9.274;2022-08-01T03:13:18;20.70;77.30
364;DHT22;173;48.718;9.274;2022-08-01T03:15:52;20.60;77.30
364;DHT22;173;48.718;9.274;2022-08-01T03:18:26;20.70;77.40
364;DHT22;173;48.718;9.274;2022-08-01T03:21:00;20.60;77.90
364;DHT22;173;48.718;9.274;2022-08-01T03:23:33;20.60;78.00
364;DHT22;173;48.718;9.274;2022-08-01T03:26:08;20.60;78.40
364;DHT22;173;48.718;9.274;2022-08-01T03:28:41;20.50;78.40
364;DHT22;173;48.718;9.274;2022-08-01T03:31:17;20.60;78.90
364;DHT22;173;48.718;9.274;2022-08-01T03:33:50;20.60;78.20
364;DHT22;173;48.718;9.274;2022-08-01T03:36:26;20.50;79.00
364;DHT22;173;48.718;9.274;2022-08-01T03:39:02;20.60;78.60
364;DHT22;173;48.718;9.274;2022-08-01T03:41:39;20.60;78.60
364;DHT22;173;48.718;9.274;2022-08-01T03:44:14;20.60;79.20
364;DHT22;173;48.718;9.274;2022-08-01T03:47:08;20.60;78.70
364;DHT22;173;48.718;9.274;2022-08-01T03:49:43;20.60;79.00
364;DHT22;173;48.718;9.274;2022-08-01T03:52:17;20.60;79.20
364;DHT22;173;48.718;9.274;2022-08-01T03:54:50;20.50;79.50
364;DHT22;173;48.718;9.274;2022-08-01T03:57:24;20.50;79.50
364;DHT22;173;48.718;9.274;2022-08-01T04:00:00;20.40;80.40
364;DHT22;173;48.718;9.274;2022-08-01T04:02:38;20.40;80.10
364;DHT22;173;48.718;9.274;2022-08-01T04:05:11;20.40;80.50
364;DHT22;173;48.718;9.274;2022-08-01T04:07:53;20.30;80.80
364;DHT22;173;48.718;9.274;2022-08-01T04:10:22;20.30;80.60
364;DHT22;173;48.718;9.274;2022-08-01T04:12:55;20.30;80.80
364;DHT22;173;48.718;9.274;2022-08-01T04:15:27;20.40;80.50
364;DHT22;173;48.718;9.274;2022-08-01T04:17:59;20.50;80.60
364;DHT22;173;48.718;9.274;2022-08-01T04:20:31;20.50;80.70
364;DHT22;173;48.718;9.274;2022-08-01T04:23:03;20.50;80.60
364;DHT22;173;48.718;9.274;2022-08-01T04:25:38;20.50;80.60
364;DHT22;173;48.718;9.274;2022-08-01T04:28:13;20.50;80.60
364;DHT22;173;48.718;9.274;2022-08-01T04:30:48;20.60;80.60
364;DHT22;173;48.718;9.274;2022-08-01T04:33:23;20.80;80.30
364;DHT22;173;48.718;9.274;2022-08-01T04:35:59;20.80;80.50
364;DHT22;173;48.718;9.274;2022-08-01T04:38:34;20.80;80.50
364;DHT22;173;48.718;9.274;2022-08-01T04:41:09;20.90;80.20
364;DHT22;173;48.718;9.274;2022-08-01T04:43:43;20.90;80.40
364;DHT22;173;48.718;9.274;2022-08-01T04:46:16;21.00;80.10
364;DHT22;173;48.718;9.274;2022-08-01T04:48:48;21.20;79.80
364;DHT22;173;48.718;9.274;2022-08-01T04:51:22;21.20;79.10
364;DHT22;173;48.718;9.274;2022-08-01T04:53:54;21.30;79.30
364;DHT22;173;48.718;9.274;2022-08-01T04:56:28;21.30;78.90
364;DHT22;173;48.718;9.274;2022-08-01T04:59:01;21.30;79.00
364;DHT22;173;48.718;9.274;2022-08-01T05:01:52;21.30;79.10
364;DHT22;173;48.718;9.274;2022-08-01T05:04:24;21.40;78.90
364;DHT22;173;48.718;9.274;2022-08-01T05:06:56;21.40;79.10
364;DHT22;173;48.718;9.274;2022-08-01T05:09:28;21.40;79.30
364;DHT22;173;48.718;9.274;2022-08-01T05:12:02;21.50;79.20
364;DHT22;173;48.718;9.274;2022-08-01T05:14:36;21.60;79.70
364;DHT22;173;48.718;9.274;2022-08-01T05:17:08;21.50;80.30
364;DHT22;173;48.718;9.274;2022-08-01T05:22:57;21.50;81.00
364;DHT22;173;48.718;9.274;2022-08-01T05:25:29;21.40;81.40
364;DHT22;173;48.718;9.274;2022-08-01T05:28:01;21.40;82.10
364;DHT22;173;48.718;9.274;2022-08-01T05:30:33;21.50;81.80
364;DHT22;173;48.718;9.274;2022-08-01T05:33:05;21.60;83.40
364;DHT22;173;48.718;9.274;2022-08-01T05:35:38;21.70;81.50
364;DHT22;173;48.718;9.274;2022-08-01T05:38:10;21.80;80.60
364;DHT22;173;48.718;9.274;2022-08-01T05:40:42;22.00;80.50
364;DHT22;173;48.718;9.274;2022-08-01T05:43:14;22.30;79.50
364;DHT22;173;48.718;9.274;2022-08-01T05:45:47;22.50;77.00
364;DHT22;173;48.718;9.274;2022-08-01T05:48:19;22.60;76.70
364;DHT22;173;48.718;9.274;2022-08-01T05:50:51;22.70;76.70
364;DHT22;173;48.718;9.274;2022-08-01T05:53:24;22.80;76.40
364;DHT22;173;48.718;9.274;2022-08-01T05:55:56;22.90;76.40
364;DHT22;173;48.718;9.274;2022-08-01T05:58:30;23.00;76.00
364;DHT22;173;48.718;9.274;2022-08-01T06:01:03;23.10;76.10
364;DHT22;173;48.718;9.274;2022-08-01T06:03:35;23.20;76.40
364;DHT22;173;48.718;9.274;2022-08-01T06:06:07;23.30;75.90
364;DHT22;173;48.718;9.274;2022-08-01T06:08:39;23.40;75.60
364;DHT22;173;48.718;9.274;2022-08-01T06:11:11;23.50;75.50
364;DHT22;173;48.718;9.274;2022-08-01T06:13:42;23.60;75.50
364;DHT22;173;48.718;9.274;2022-08-01T06:16:15;23.60;75.50
364;DHT22;173;48.718;9.274;2022-08-01T06:18:47;23.50;75.20
364;DHT22;173;48.718;9.274;2022-08-01T06:21:19;23.40;75.60
364;DHT22;173;48.718;9.274;2022-08-01T06:23:51;23.40;75.90
364;DHT22;173;48.718;9.274;2022-08-01T06:26:23;23.60;75.90
364;DHT22;173;48.718;9.274;2022-08-01T06:28:55;24.00;74.80
364;DHT22;173;48.718;9.274;2022-08-01T06:31:27;24.00;74.80
364;DHT22;173;48.718;9.274;2022-08-01T06:33:59;24.30;74.00
364;DHT22;173;48.718;9.274;2022-08-01T06:36:31;24.50;72.90
364;DHT22;173;48.718;9.274;2022-08-01T06:39:03;24.70;72.60
364;DHT22;173;48.718;9.274;2022-08-01T06:41:35;24.80;72.80
364;DHT22;173;48.718;9.274;2022-08-01T06:44:09;25.00;71.20
364;DHT22;173;48.718;9.274;2022-08-01T06:46:42;25.10;70.40
364;DHT22;173;48.718;9.274;2022-08-01T06:49:14;25.10;70.70
364;DHT22;173;48.718;9.274;2022-08-01T06:51:46;25.20;71.00
364;DHT22;173;48.718;9.274;2022-08-01T06:54:18;25.20;70.00
364;DHT22;173;48.718;9.274;2022-08-01T06:56:50;25.30;69.80
364;DHT22;173;48.718;9.274;2022-08-01T07:01:48;25.90;69.90
364;DHT22;173;48.718;9.274;2022-08-01T07:04:20;26.10;68.70
364;DHT22;173;48.718;9.274;2022-08-01T07:06:52;26.30;68.50
364;DHT22;173;48.718;9.274;2022-08-01T07:09:24;26.40;68.00
364;DHT22;173;48.718;9.274;2022-08-01T07:11:56;26.50;67.70
364;DHT22;173;48.718;9.274;2022-08-01T07:14:29;26.60;65.90
364;DHT22;173;48.718;9.274;2022-08-01T07:17:01;26.50;67.30
364;DHT22;173;48.718;9.274;2022-08-01T07:22:04;26.40;67.00
364;DHT22;173;48.718;9.274;2022-08-01T07:24:36;26.40;66.30
364;DHT22;173;48.718;9.274;2022-08-01T07:27:09;26.30;67.10
364;DHT22;173;48.718;9.274;2022-08-01T07:29:42;26.40;67.80
364;DHT22;173;48.718;9.274;2022-08-01T07:32:14;26.50;67.30
364;DHT22;173;48.718;9.274;2022-08-01T07:34:46;26.80;66.30
364;DHT22;173;48.718;9.274;2022-08-01T07:37:18;27.20;65.30
364;DHT22;173;48.718;9.274;2022-08-01T07:39:51;27.20;63.90
364;DHT22;173;48.718;9.274;2022-08-01T07:42:23;27.10;65.00
364;DHT22;173;48.718;9.274;2022-08-01T07:44:55;27.00;65.20
364;DHT22;173;48.718;9.274;2022-08-01T07:47:28;26.70;64.70
364;DHT22;173;48.718;9.274;2022-08-01T07:50:02;26.60;66.20
364;DHT22;173;48.718;9.274;2022-08-01T07:52:35;27.00;65.30
364;DHT22;173;48.718;9.274;2022-08-01T07:55:08;27.20;63.50
364;DHT22;173;48.718;9.274;2022-08-01T07:57:41;27.50;63.80
364;DHT22;173;48.718;9.274;2022-08-01T08:00:13;27.70;63.20
364;DHT22;173;48.718;9.274;2022-08-01T08:02:46;27.90;62.90
364;DHT22;173;48.718;9.274;2022-08-01T08:05:18;28.10;61.50
364;DHT22;173;48.718;9.274;2022-08-01T08:07:50;28.20;61.80
364;DHT22;173;48.718;9.274;2022-08-01T08:10:22;28.30;62.00
364;DHT22;173;48.718;9.274;2022-08-01T08:12:54;27.90;62.70
364;DHT22;173;48.718;9.274;2022-08-01T08:15:26;28.10;61.80
364;DHT22;173;48.718;9.274;2022-08-01T08:17:58;27.90;60.60
364;DHT22;173;48.718;9.274;2022-08-01T08:25:39;28.50;60.30
364;DHT22;173;48.718;9.274;2022-08-01T08:28:11;28.50;61.40
364;DHT22;173;48.718;9.274;2022-08-01T08:30:43;28.60;60.10
364;DHT22;173;48.718;9.274;2022-08-01T08:33:15;29.00;61.40
364;DHT22;173;48.718;9.274;2022-08-01T08:35:47;29.10;58.20
364;DHT22;173;48.718;9.274;2022-08-01T08:38:23;29.20;57.20
364;DHT22;173;48.718;9.274;2022-08-01T08:40:56;29.20;59.50
364;DHT22;173;48.718;9.274;2022-08-01T08:43:29;29.50;57.10
364;DHT22;173;48.718;9.274;2022-08-01T08:46:02;29.60;56.60
364;DHT22;173;48.718;9.274;2022-08-01T08:48:35;29.70;56.30
364;DHT22;173;48.718;9.274;2022-08-01T08:51:10;29.30;57.50
364;DHT22;173;48.718;9.274;2022-08-01T08:53:46;29.70;59.40
364;DHT22;173;48.718;9.274;2022-08-01T08:56:19;30.30;55.60
364;DHT22;173;48.718;9.274;2022-08-01T08:58:56;29.80;56.80
364;DHT22;173;48.718;9.274;2022-08-01T09:01:28;29.30;57.90
364;DHT22;173;48.718;9.274;2022-08-01T09:04:05;29.40;56.90
364;DHT22;173;48.718;9.274;2022-08-01T09:11:40;30.00;55.50
364;DHT22;173;48.718;9.274;2022-08-01T09:14:14;29.90;55.30
364;DHT22;173;48.718;9.274;2022-08-01T09:17:08;30.30;55.00
364;DHT22;173;48.718;9.274;2022-08-01T09:19:42;30.40;53.20
364;DHT22;173;48.718;9.274;2022-08-01T09:22:18;30.40;54.10
364;DHT22;173;48.718;9.274;2022-08-01T09:25:07;30.50;54.80
364;DHT22;173;48.718;9.274;2022-08-01T09:27:40;30.30;54.90
364;DHT22;173;48.718;9.274;2022-08-01T09:30:17;30.10;57.00
364;DHT22;173;48.718;9.274;2022-08-01T09:35:35;30.10;56.50
364;DHT22;173;48.718;9.274;2022-08-01T09:38:17;30.30;56.50
364;DHT22;173;48.718;9.274;2022-08-01T09:44:51;30.00;58.50
364;DHT22;173;48.718;9.274;2022-08-01T09:47:37;29.80;57.40
364;DHT22;173;48.718;9.274;2022-08-01T09:55:11;29.70;58.40
364;DHT22;173;48.718;9.274;2022-08-01T09:57:56;29.70;58.50
364;DHT22;173;48.718;9.274;2022-08-01T10:00:28;29.90;57.50
364;DHT22;173;48.718;9.274;2022-08-01T10:04:50;30.30;53.90
364;DHT22;173;48.718;9.274;2022-08-01T10:07:23;30.60;57.40
364;DHT22;173;48.718;9.274;2022-08-01T10:09:55;31.10;53.20
364;DHT22;173;48.718;9.274;2022-08-01T10:12:29;31.30;52.60
364;DHT22;173;48.718;9.274;2022-08-01T10:15:03;31.60;52.10
364;DHT22;173;48.718;9.274;2022-08-01T10:17:37;31.70;52.80
364;DHT22;173;48.718;9.274;2022-08-01T10:22:41;31.20;54.00
364;DHT22;173;48.718;9.274;2022-08-01T10:25:15;30.70;54.60
364;DHT22;173;48.718;9.274;2022-08-01T10:27:52;30.60;56.30
364;DHT22;173;48.718;9.274;2022-08-01T10:30:25;30.40;55.90
364;DHT22;173;48.718;9.274;2022-08-01T10:32:57;30.60;55.70
364;DHT22;173;48.718;9.274;2022-08-01T10:35:30;31.30;55.40
364;DHT22;173;48.718;9.274;2022-08-01T10:38:04;31.60;52.50
364;DHT22;173;48.718;9.274;2022-08-01T10:40:37;31.60;53.00
364;DHT22;173;48.718;9.274;2022-08-01T10:43:11;31.30;54.90
364;DHT22;173;48.718;9.274;2022-08-01T10:51:20;32.30;52.50
364;DHT22;173;48.718;9.274;2022-08-01T11:02:59;33.40;50.40
364;DHT22;173;48.718;9.274;2022-08-01T11:05:33;33.50;48.90
364;DHT22;173;48.718;9.274;2022-08-01T11:08:10;32.90;48.10
364;DHT22;173;48.718;9.274;2022-08-01T11:10:44;32.80;49.30
364;DHT22;173;48.718;9.274;2022-08-01T11:13:46;33.10;48.80
364;DHT22;173;48.718;9.274;2022-08-01T11:16:28;33.30;49.40
364;DHT22;173;48.718;9.274;2022-08-01T11:18:59;33.10;48.20
364;DHT22;173;48.718;9.274;2022-08-01T11:27:30;31.20;52.30
364;DHT22;173;48.718;9.274;2022-08-01T11:32:53;31.90;54.40
364;DHT22;173;48.718;9.274;2022-08-01T11:35:26;33.00;50.20
364;DHT22;173;48.718;9.274;2022-08-01T11:38:22;33.90;48.80
364;DHT22;173;48.718;9.274;2022-08-01T11:44:19;32.40;49.30
364;DHT22;173;48.718;9.274;2022-08-01T11:47:07;31.30;51.70
364;DHT22;173;48.718;9.274;2022-08-01T11:49:45;30.70;53.30
364;DHT22;173;48.718;9.274;2022-08-01T11:52:31;30.50;54.50
364;DHT22;173;48.718;9.274;2022-08-01T11:55:07;30.20;54.60
364;DHT22;173;48.718;9.274;2022-08-01T11:57:40;29.90;53.30
364;DHT22;173;48.718;9.274;2022-08-01T12:00:16;29.60;55.00
364;DHT22;173;48.718;9.274;2022-08-01T12:03:02;29.40;56.20
364;DHT22;173;48.718;9.274;2022-08-01T12:05:35;29.40;56.90
364;DHT22;173;48.718;9.274;2022-08-01T12:08:09;29.20;57.20
364;DHT22;173;48.718;9.274;2022-08-01T12:10:49;29.20;57.30
364;DHT22;173;48.718;9.274;2022-08-01T12:13:21;29.30;55.60
364;DHT22;173;48.718;9.274;2022-08-01T12:15:55;29.40;55.80
364;DHT22;173;48.718;9.274;2022-08-01T12:18:31;29.40;56.50
364;DHT22;173;48.718;9.274;2022-08-01T12:21:06;29.50;55.30
364;DHT22;173;48.718;9.274;2022-08-01T12:23:41;29.60;55.60
364;DHT22;173;48.718;9.274;2022-08-01T12:26:15;30.30;55.60
364;DHT22;173;48.718;9.274;2022-08-01T12:39:00;30.60;53.30
364;DHT22;173;48.718;9.274;2022-08-01T12:41:35;30.60;53.90
364;DHT22;173;48.718;9.274;2022-08-01T12:44:13;30.80;54.30
364;DHT22;173;48.718;9.274;2022-08-01T12:46:48;30.80;53.00
364;DHT22;173;48.718;9.274;2022-08-01T12:49:22;30.70;54.30
364;DHT22;173;48.718;9.274;2022-08-01T12:51:57;30.70;53.40
364;DHT22;173;48.718;9.274;2022-08-01T12:59:34;31.20;52.40
364;DHT22;173;48.718;9.274;2022-08-01T13:02:11;31.50;52.60
364;DHT22;173;48.718;9.274;2022-08-01T13:04:52;31.90;54.10
364;DHT22;173;48.718;9.274;2022-08-01T13:07:34;32.30;52.30
364;DHT22;173;48.718;9.274;2022-08-01T13:10:27;33.50;50.50
364;DHT22;173;48.718;9.274;2022-08-01T13:13:02;34.70;46.90
364;DHT22;173;48.718;9.274;2022-08-01T13:15:36;35.60;44.60
364;DHT22;173;48.718;9.274;2022-08-01T13:18:30;35.90;43.60
364;DHT22;173;48.718;9.274;2022-08-01T13:21:10;36.30;44.50
364;DHT22;173;48.718;9.274;2022-08-01T13:24:04;37.10;41.20
364;DHT22;173;48.718;9.274;2022-08-01T13:26:54;37.30;40.10
364;DHT22;173;48.718;9.274;2022-08-01T13:29:37;36.90;40.40
364;DHT22;173;48.718;9.274;2022-08-01T13:32:17;37.00;41.60
364;DHT22;173;48.718;9.274;2022-08-01T13:35:00;36.60;40.10
364;DHT22;173;48.718;9.274;2022-08-01T13:37:33;35.50;42.80
364;DHT22;173;48.718;9.274;2022-08-01T13:40:08;34.10;44.60
364;DHT22;173;48.718;9.274;2022-08-01T13:42:43;33.10;47.60
364;DHT22;173;48.718;9.274;2022-08-01T13:45:17;32.30;48.50
364;DHT22;173;48.718;9.274;2022-08-01T13:47:51;31.70;49.40
364;DHT22;173;48.718;9.274;2022-08-01T13:50:25;31.20;50.70
364;DHT22;173;48.718;9.274;2022-08-01T13:58:01;30.60;52.30
364;DHT22;173;48.718;9.274;2022-08-01T14:00:36;30.20;54.10
364;DHT22;173;48.718;9.274;2022-08-01T14:03:10;30.40;53.70
364;DHT22;173;48.718;9.274;2022-08-01T14:05:45;30.60;53.80
364;DHT22;173;48.718;9.274;2022-08-01T14:08:19;31.00;53.20
364;DHT22;173;48.718;9.274;2022-08-01T14:10:51;31.30;51.20
364;DHT22;173;48.718;9.274;2022-08-01T14:13:25;31.30;51.00
364;DHT22;173;48.718;9.274;2022-08-01T14:15:59;30.90;52.60
364;DHT22;173;48.718;9.274;2022-08-01T14:18:32;30.80;53.80
364;DHT22;173;48.718;9.274;2022-08-01T14:21:06;30.80;53.60
364;DHT22;173;48.718;9.274;2022-08-01T14:23:38;30.60;53.30
364;DHT22;173;48.718;9.274;2022-08-01T14:26:13;30.70;54.00
364;DHT22;173;48.718;9.274;2022-08-01T14:28:45;30.70;53.40
364;DHT22;173;48.718;9.274;2022-08-01T14:31:19;30.40;53.40
364;DHT22;173;48.718;9.274;2022-08-01T14:33:51;30.10;53.40
364;DHT22;173;48.718;9.274;2022-08-01T14:36:23;29.80;54.50
364;DHT22;173;48.718;9.274;2022-08-01T14:38:55;29.60;55.30
364;DHT22;173;48.718;9.274;2022-08-01T14:41:28;29.70;55.20
364;DHT22;173;48.718;9.274;2022-08-01T14:44:00;29.80;55.40
364;DHT22;173;48.718;9.274;2022-08-01T14:46:34;29.90;54.70
364;DHT22;173;48.718;9.274;2022-08-01T14:49:06;30.20;54.80
364;DHT22;173;48.718;9.274;2022-08-01T14:51:38;30.60;53.40
364;DHT22;173;48.718;9.274;2022-08-01T14:54:10;30.60;54.10
364;DHT22;173;48.718;9.274;2022-08-01T14:56:42;30.40;53.40
364;DHT22;173;48.718;9.274;2022-08-01T14:59:14;30.10;53.90
364;DHT22;173;48.718;9.274;2022-08-01T15:01:47;30.20;54.30
364;DHT22;173;48.718;9.274;2022-08-01T15:04:19;30.10;53.50
364;DHT22;173;48.718;9.274;2022-08-01T15:06:51;30.10;55.20
364;DHT22;173;48.718;9.274;2022-08-01T15:09:25;30.30;55.20
364;DHT22;173;48.718;9.274;2022-08-01T15:11:57;30.30;55.30
364;DHT22;173;48.718;9.274;2022-08-01T15:14:29;30.40;54.20
364;DHT22;173;48.718;9.274;2022-08-01T15:17:18;30.80;52.80
364;DHT22;173;48.718;9.274;2022-08-01T15:19:53;30.60;51.30
364;DHT22;173;48.718;9.274;2022-08-01T15:22:27;31.10;53.20
364;DHT22;173;48.718;9.274;2022-08-01T15:25:01;31.50;51.10
364;DHT22;173;48.718;9.274;2022-08-01T15:27:33;31.20;50.90
364;DHT22;173;48.718;9.274;2022-08-01T15:35:08;30.40;52.80
364;DHT22;173;48.718;9.274;2022-08-01T15:37:40;30.00;53.50
364;DHT22;173;48.718;9.274;2022-08-01T15:40:13;30.00;53.90
364;DHT22;173;48.718;9.274;2022-08-01T15:42:46;30.10;53.00
364;DHT22;173;48.718;9.274;2022-08-01T15:45:19;30.20;53.70
364;DHT22;173;48.718;9.274;2022-08-01T15:47:54;30.40;53.40
364;DHT22;173;48.718;9.274;2022-08-01T15:50:26;30.50;52.90
364;DHT22;173;48.718;9.274;2022-08-01T15:52:58;30.60;53.40
364;DHT22;173;48.718;9.274;2022-08-01T15:55:34;30.40;52.80
364;DHT22;173;48.718;9.274;2022-08-01T15:58:06;30.50;52.60
364;DHT22;173;48.718;9.274;2022-08-01T16:05:41;30.40;53.60
364;DHT22;173;48.718;9.274;2022-08-01T16:08:15;30.20;53.50
364;DHT22;173;48.718;9.274;2022-08-01T16:10:47;30.10;53.50
364;DHT22;173;48.718;9.274;2022-08-01T16:13:19;30.20;53.80
364;DHT22;173;48.718;9.274;2022-08-01T16:15:51;30.20;52.30
364;DHT22;173;48.718;9.274;2022-08-01T16:18:25;30.30;54.60
364;DHT22;173;48.718;9.274;2022-08-01T16:20:58;30.40;51.70
364;DHT22;173;48.718;9.274;2022-08-01T16:23:30;30.30;53.30
364;DHT22;173;48.718;9.274;2022-08-01T16:26:02;30.20;53.40
364;DHT22;173;48.718;9.274;2022-08-01T16:28:36;30.20;51.60
364;DHT22;173;48.718;9.274;2022-08-01T16:31:08;29.90;52.30
364;DHT22;173;48.718;9.274;2022-08-01T16:33:42;29.70;53.70
364;DHT22;173;48.718;9.274;2022-08-01T16:36:17;29.60;53.80
364;DHT22;173;48.718;9.274;2022-08-01T16:38:49;29.40;53.20
364;DHT22;173;48.718;9.274;2022-08-01T16:41:21;29.00;54.10
364;DHT22;173;48.718;9.274;2022-08-01T16:43:53;29.10;54.20
364;DHT22;173;48.718;9.274;2022-08-01T16:46:25;29.10;54.70
364;DHT22;173;48.718;9.274;2022-08-01T16:48:59;29.10;54.50
364;DHT22;173;48.718;9.274;2022-08-01T16:51:33;29.00;54.70
364;DHT22;173;48.718;9.274;2022-08-01T16:54:07;28.80;54.80
364;DHT22;173;48.718;9.274;2022-08-01T16:56:39;28.80;55.00
364;DHT22;173;48.718;9.274;2022-08-01T16:59:11;28.80;54.60
364;DHT22;173;48.718;9.274;2022-08-01T17:04:14;28.90;54.60
364;DHT22;173;48.718;9.274;2022-08-01T17:06:48;28.90;54.30
364;DHT22;173;48.718;9.274;2022-08-01T17:09:20;28.80;54.40
364;DHT22;173;48.718;9.274;2022-08-01T17:11:52;28.80;54.40
364;DHT22;173;48.718;9.274;2022-08-01T17:14:24;28.70;54.70
364;DHT22;173;48.718;9.274;2022-08-01T17:16:58;28.50;55.00
364;DHT22;173;48.718;9.274;2022-08-01T17:19:32;28.30;55.50
364;DHT22;173;48.718;9.274;2022-08-01T17:22:07;27.70;57.50
364;DHT22;173;48.718;9.274;2022-08-01T17:24:41;27.10;59.70
364;DHT22;173;48.718;9.274;2022-08-01T17:27:13;26.70;61.10
364;DHT22;173;48.718;9.274;2022-08-01T17:29:47;26.70;61.90
364;DHT22;173;48.718;9.274;2022-08-01T17:32:19;26.30;62.30
364;DHT22;173;48.718;9.274;2022-08-01T17:34:54;26.00;63.30
364;DHT22;173;48.718;9.274;2022-08-01T17:37:26;25.90;63.90
364;DHT22;173;48.718;9.274;2022-08-01T17:39:58;25.60;63.60
364;DHT22;173;48.718;9.274;2022-08-01T17:42:32;25.50;64.00
364;DHT22;173;48.718;9.274;2022-08-01T17:45:08;25.50;64.80
364;DHT22;173;48.718;9.274;2022-08-01T17:47:41;25.20;65.60
364;DHT22;173;48.718;9.274;2022-08-01T17:50:15;25.00;66.80
364;DHT22;173;48.718;9.274;2022-08-01T17:52:47;24.80;67.20
364;DHT22;173;48.718;9.274;2022-08-01T17:55:20;24.80;68.00
364;DHT22;173;48.718;9.274;2022-08-01T17:57:53;24.70;67.90
364;DHT22;173;48.718;9.274;2022-08-01T18:00:25;24.80;68.40
364;DHT22;173;48.718;9.274;2022-08-01T18:02:57;24.80;68.00
364;DHT22;173;48.718;9.274;2022-08-01T18:10:35;25.00;68.70
364;DHT22;173;48.718;9.274;2022-08-01T18:13:10;25.00;68.50
364;DHT22;173;48.718;9.274;2022-08-01T18:15:44;24.90;68.50
364;DHT22;173;48.718;9.274;2022-08-01T18:18:19;24.80;68.80
364;DHT22;173;48.718;9.274;2022-08-01T18:20:52;24.80;69.40
364;DHT22;173;48.718;9.274;2022-08-01T18:23:25;24.60;70.00
364;DHT22;173;48.718;9.274;2022-08-01T18:25:59;24.50;70.30
364;DHT22;173;48.718;9.274;2022-08-01T18:28:34;24.60;71.00
364;DHT22;173;48.718;9.274;2022-08-01T18:31:08;24.60;70.90
364;DHT22;173;48.718;9.274;2022-08-01T18:33:42;24.40;71.50
364;DHT22;173;48.718;9.274;2022-08-01T18:36:17;24.40;71.40
364;DHT22;173;48.718;9.274;2022-08-01T18:38:49;24.30;72.80
364;DHT22;173;48.718;9.274;2022-08-01T18:41:21;24.20;72.60
364;DHT22;173;48.718;9.274;2022-08-01T18:43:53;24.50;71.90
364;DHT22;173;48.718;9.274;2022-08-01T18:46:25;24.60;71.70
364;DHT22;173;48.718;9.274;2022-08-01T18:48:57;24.80;71.30
364;DHT22;173;48.718;9.274;2022-08-01T18:51:31;24.80;71.30
364;DHT22;173;48.718;9.274;2022-08-01T18:54:03;24.60;71.70
364;DHT22;173;48.718;9.274;2022-08-01T18:56:35;24.60;71.70
364;DHT22;173;48.718;9.274;2022-08-01T18:59:07;24.50;71.90
364;DHT22;173;48.718;9.274;2022-08-01T19:01:40;24.50;71.80
364;DHT22;173;48.718;9.274;2022-08-01T19:04:12;24.50;72.00
364;DHT22;173;48.718;9.274;2022-08-01T19:06:46;24.40;72.40
364;DHT22;173;48.718;9.274;2022-08-01T19:09:21;24.20;73.50
364;DHT22;173;48.718;9.274;2022-08-01T19:11:53;24.20;73.50
364;DHT22;173;48.718;9.274;2022-08-01T19:14:25;24.30;73.50
364;DHT22;173;48.718;9.274;2022-08-01T19:16:57;24.30;74.00